Pagrindinis puslapis
METAR-TAF:

METAR-TAF

Oro uostai :

Resistensija, Argentina

platuma: 27-27S, ilguma: 059-03W, Aukštis: 53 m

Dabartinis oras

Ataskaita buvo paskelbta 1 valandą ir 0 minutes, ne 12:00 UTC
Vėjas 11 kt iš Šiaurės Rytų
Temperatūra 19°C
Drėgmė 64%
Slėgis 1015 hPa
Matomumas: 8000 m

METAR: SARE 241200Z 04011KT 8000 NSC 19/12 Q1015

Laikas: 10:00 (13:00 UTC)

Prognozė

Ataskaita buvo paskelbta 2 valandos ir 0 minutes, ne 11:00 UTC
Prognozė galioja nuo 24 metu 12 UTC su 25 metu 12 UTC
Vėjas 10 kt iš Šiaurės Rytų
Matomumas: 8000 m
Tapsmas
nuo 25 metu 06 UTC su 25 metu 08 UTC
Vėjas 10 kt iš Pietų
Matomumas 10 km arba daugiau
Su prošvaistėmis ne aukštis 3000 ft

TAF: SARE 241100Z 2412/2512 04010KT 8000 NSC TX32/2419Z TN15/2510Z BECMG 2506/2508 18010KT 9999 BKN030

Orai ataskaitas ir orų prognozės (METAR, TAF).

turimą stotys yra geltonos ir raudonos taškus žemėlapyje.

Perkelti pele per norėdami pamatyti stoties vardą.

Tada spustelėkite, norėdami matyti oro stebėjimo ir prognozės.

Norėdami pakeisti žemėlapį: spustelėkite ant žalios mygtukų su juodo kryžiaus žemyn,; žalią mygtuką su brūkšneliu, jei norite nutolinti; arba žalių rodyklių gretimoms žemėlapius.


METAR-TAF: